Time;durP1;ratioP1;P1;durP2;ratioP2;P2;SDS_P1;SDS_P2;PMS_P1;PMS_P2;Temp;Humidity;BMP_temperature;BMP_pressure;BME280_temperature;BME280_humidity;BME280_pressure;Samples;Min_cycle;Max_cycle;Signal;HPM_P1;HPM_P2
2021/03/28 00:00:45;;;;;;;5.40;2.50;;;;;;;;;;5121627;28;20299;-76
2021/03/28 00:03:15;;;;;;;6.33;2.20;;;;;;;;;;5121647;28;20711;-79
2021/03/28 00:05:44;;;;;;;4.87;2.43;;;;;;;;;;5121575;28;20320;-76
2021/03/28 00:08:17;;;;;;;4.43;2.30;;;;;;;;;;5121959;28;20251;-78
2021/03/28 00:10:46;;;;;;;6.73;2.80;;;;;;;;;;5121818;27;20201;-76
2021/03/28 00:13:14;;;;;;;2.93;2.20;;;;;;;;;;5121245;28;20201;-77
2021/03/28 00:15:43;;;;;;;5.63;2.70;;;;;;;;;;5120968;28;20252;-77
2021/03/28 00:18:15;;;;;;;4.10;2.50;;;;;;;;;;5121436;28;20279;-79
2021/03/28 00:20:44;;;;;;;4.67;2.67;;;;;;;;;;5121523;28;20204;-78
2021/03/28 00:23:17;;;;;;;5.57;2.80;;;;;;;;;;5121633;28;20258;-80
2021/03/28 00:25:47;;;;;;;5.67;2.63;;;;;;;;;;5121195;28;20235;-78
2021/03/28 00:28:31;;;;;;;8.23;2.80;;;;;;;;;;5121215;28;20292;-79
2021/03/28 00:31:21;;;;;;;6.03;2.40;;;;;;;;;;5100216;28;20316;-80
2021/03/28 00:33:59;;;;;;;5.07;2.50;;;;;;;;;;5100769;28;20231;-80
2021/03/28 00:36:33;;;;;;;3.97;2.50;;;;;;;;;;5105691;28;20205;-80
2021/03/28 00:39:01;;;;;;;4.07;2.43;;;;;;;;;;5100411;28;20240;-79
2021/03/28 00:41:41;;;;;;;7.13;3.00;;;;;;;;;;5100521;28;20284;-80
2021/03/28 00:44:15;;;;;;;4.63;2.30;;;;;;;;;;5100259;28;20289;-78
2021/03/28 00:46:44;;;;;;;6.73;2.27;;;;;;;;;;5107072;28;20312;-78
2021/03/28 00:49:20;;;;;;;5.50;2.90;;;;;;;;;;5100562;28;20265;-79
2021/03/28 00:51:51;;;;;;;2.63;2.20;;;;;;;;;;5108949;28;20717;-78
2021/03/28 00:54:20;;;;;;;4.97;2.20;;;;;;;;;;5120643;28;20224;-78
2021/03/28 00:56:48;;;;;;;3.63;2.23;;;;;;;;;;5120838;28;20312;-77
2021/03/28 00:59:16;;;;;;;4.17;2.27;;;;;;;;;;5120583;28;20204;-80
2021/03/28 01:02:03;;;;;;;5.97;2.37;;;;;;;;;;5120899;28;20292;-78
2021/03/28 01:04:44;;;;;;;6.80;2.10;;;;;;;;;;5120542;28;20731;-77
2021/03/28 01:07:18;;;;;;;7.60;2.50;;;;;;;;;;5120647;28;20755;-77
2021/03/28 01:09:57;;;;;;;3.27;2.40;;;;;;;;;;5120363;28;20287;-77
2021/03/28 01:12:43;;;;;;;13.83;2.77;;;;;;;;;;5120384;28;20200;-77
2021/03/28 01:15:20;;;;;;;5.47;2.50;;;;;;;;;;5119879;28;20249;-77
2021/03/28 01:17:49;;;;;;;8.63;2.77;;;;;;;;;;5120324;28;20201;-77
2021/03/28 01:20:33;;;;;;;9.23;2.47;;;;;;;;;;5119958;28;20243;-80
2021/03/28 01:23:06;;;;;;;3.73;2.20;;;;;;;;;;5119980;28;20695;-79
2021/03/28 01:25:39;;;;;;;5.23;2.50;;;;;;;;;;5119744;28;20239;-79
2021/03/28 01:28:14;;;;;;;5.07;2.33;;;;;;;;;;5119791;28;20243;-80
2021/03/28 01:30:44;;;;;;;4.13;2.23;;;;;;;;;;5111255;28;20244;-79
2021/03/28 01:33:14;;;;;;;5.17;2.37;;;;;;;;;;5099373;28;20274;-79
2021/03/28 01:35:49;;;;;;;3.27;2.13;;;;;;;;;;5103253;28;20670;-79
2021/03/28 01:38:20;;;;;;;5.07;2.20;;;;;;;;;;5099501;28;20232;-80
2021/03/28 01:40:51;;;;;;;5.20;2.33;;;;;;;;;;5099503;28;20653;-79
2021/03/28 01:43:23;;;;;;;6.50;2.30;;;;;;;;;;5099269;28;20236;-80
2021/03/28 01:45:53;;;;;;;3.90;1.90;;;;;;;;;;5104514;28;20319;-80
2021/03/28 01:48:24;;;;;;;4.20;1.90;;;;;;;;;;5099335;28;20248;-79
2021/03/28 01:50:58;;;;;;;5.30;2.00;;;;;;;;;;5098958;28;20209;-80
2021/03/28 01:53:30;;;;;;;6.50;2.10;;;;;;;;;;5099266;28;20297;-79
2021/03/28 01:55:59;;;;;;;6.60;2.27;;;;;;;;;;5099155;28;20256;-80
2021/03/28 01:58:32;;;;;;;7.47;2.40;;;;;;;;;;5098881;28;20202;-80
2021/03/28 02:01:17;;;;;;;3.83;2.10;;;;;;;;;;5098893;28;20288;-80
2021/03/28 02:03:52;;;;;;;3.40;1.90;;;;;;;;;;5112171;28;20196;-80
2021/03/28 02:06:28;;;;;;;6.37;2.47;;;;;;;;;;5119299;28;20267;-80
2021/03/28 02:08:57;;;;;;;5.90;2.67;;;;;;;;;;5119326;28;20200;-80
2021/03/28 02:11:28;;;;;;;4.43;2.57;;;;;;;;;;5119185;28;20236;-80
2021/03/28 02:14:03;;;;;;;5.50;2.77;;;;;;;;;;5118613;28;20204;-78
2021/03/28 02:16:33;;;;;;;5.87;2.47;;;;;;;;;;5119241;28;20717;-79
2021/03/28 02:19:07;;;;;;;6.33;2.47;;;;;;;;;;5118821;28;20627;-78
2021/03/28 02:21:44;;;;;;;8.63;3.03;;;;;;;;;;5118882;28;20739;-79
2021/03/28 02:24:14;;;;;;;2.27;1.80;;;;;;;;;;5118667;28;20240;-79
2021/03/28 02:26:43;;;;;;;3.53;2.20;;;;;;;;;;5118775;28;20224;-79
2021/03/28 02:29:20;;;;;;;2.83;2.17;;;;;;;;;;5118381;28;20275;-79
2021/03/28 02:32:05;;;;;;;4.20;2.73;;;;;;;;;;5101601;28;20212;-78
2021/03/28 02:34:34;;;;;;;5.13;2.60;;;;;;;;;;5101932;28;20223;-79
2021/03/28 02:37:07;;;;;;;5.73;2.30;;;;;;;;;;5098389;28;20288;-79
2021/03/28 02:39:40;;;;;;;2.70;1.83;;;;;;;;;;5098085;28;20288;-78
2021/03/28 02:42:13;;;;;;;4.63;2.27;;;;;;;;;;5098301;28;20300;-79
2021/03/28 02:44:52;;;;;;;4.50;2.10;;;;;;;;;;5098168;28;20265;-79
2021/03/28 02:47:27;;;;;;;4.40;2.50;;;;;;;;;;5104126;28;20225;-80
2021/03/28 02:50:09;;;;;;;3.33;2.10;;;;;;;;;;5097778;28;20551;-78
2021/03/28 02:52:40;;;;;;;3.67;2.17;;;;;;;;;;5096352;28;20239;-79
2021/03/28 02:55:25;;;;;;;3.23;2.20;;;;;;;;;;5098216;28;20221;-79
2021/03/28 02:58:02;;;;;;;3.40;1.93;;;;;;;;;;5098016;28;20232;-79
2021/03/28 03:00:33;;;;;;;7.73;2.10;;;;;;;;;;5097606;28;20687;-79
2021/03/28 03:03:10;;;;;;;3.93;1.90;;;;;;;;;;5104971;28;20197;-79
2021/03/28 03:05:45;;;;;;;4.47;2.07;;;;;;;;;;5118010;28;20565;-79
2021/03/28 03:08:15;;;;;;;3.20;1.93;;;;;;;;;;5118449;28;20208;-79
2021/03/28 03:10:57;;;;;;;4.83;2.20;;;;;;;;;;5118342;28;20675;-77
2021/03/28 03:13:38;;;;;;;6.97;2.13;;;;;;;;;;5118223;28;20291;-78
2021/03/28 03:16:08;;;;;;;4.40;1.90;;;;;;;;;;5105504;28;20221;-77
2021/03/28 03:18:56;;;;;;;3.87;2.20;;;;;;;;;;5118048;28;20645;-80
2021/03/28 03:21:43;;;;;;;3.07;1.90;;;;;;;;;;5118350;28;20211;-79
2021/03/28 03:24:28;;;;;;;1.80;1.60;;;;;;;;;;5118143;28;20291;-78
2021/03/28 03:27:11;;;;;;;2.27;1.57;;;;;;;;;;5118027;28;20224;-81
2021/03/28 03:29:56;;;;;;;5.30;2.10;;;;;;;;;;5117587;28;20264;-79
2021/03/28 03:32:34;;;;;;;7.50;1.87;;;;;;;;;;5109321;27;20264;-79
2021/03/28 03:35:20;;;;;;;4.97;1.90;;;;;;;;;;5102001;28;20260;-77
2021/03/28 03:38:11;;;;;;;5.33;2.90;;;;;;;;;;5104686;28;20312;-80
2021/03/28 03:40:39;;;;;;;5.23;2.80;;;;;;;;;;5107650;28;20276;-78
2021/03/28 03:43:23;;;;;;;4.63;2.87;;;;;;;;;;5108790;28;20642;-80
2021/03/28 03:45:57;;;;;;;4.97;3.20;;;;;;;;;;5110909;28;20307;-79
2021/03/28 03:48:29;;;;;;;5.10;3.33;;;;;;;;;;5107773;28;20237;-79
2021/03/28 03:51:02;;;;;;;5.87;3.73;;;;;;;;;;5108225;28;20280;-79
2021/03/28 03:53:42;;;;;;;7.60;3.23;;;;;;;;;;5111248;28;20233;-77
2021/03/28 03:56:15;;;;;;;8.80;3.73;;;;;;;;;;5108326;28;20304;-77
2021/03/28 03:58:45;;;;;;;11.40;3.13;;;;;;;;;;5112045;28;20201;-77
2021/03/28 04:01:20;;;;;;;4.67;3.27;;;;;;;;;;5113001;28;20310;-78
2021/03/28 04:03:56;;;;;;;4.17;3.70;;;;;;;;;;5114699;28;20599;-78
2021/03/28 04:06:38;;;;;;;8.00;3.63;;;;;;;;;;5114631;28;20236;-78
2021/03/28 04:09:13;;;;;;;7.70;3.50;;;;;;;;;;5114448;27;20261;-79
2021/03/28 04:11:47;;;;;;;6.63;3.73;;;;;;;;;;5117433;28;20206;-79
2021/03/28 04:14:24;;;;;;;7.33;3.83;;;;;;;;;;5116224;28;20196;-78
2021/03/28 04:16:58;;;;;;;6.37;3.10;;;;;;;;;;5115299;28;20235;-78
2021/03/28 04:19:43;;;;;;;3.97;3.20;;;;;;;;;;5114626;28;20196;-80
2021/03/28 04:22:40;;;;;;;6.80;3.30;;;;;;;;;;5112951;28;20239;-79
2021/03/28 04:25:15;;;;;;;7.90;3.30;;;;;;;;;;5113619;28;20259;-79
2021/03/28 04:27:49;;;;;;;6.37;3.80;;;;;;;;;;5116035;28;20227;-79
2021/03/28 04:30:34;;;;;;;5.93;3.30;;;;;;;;;;5113840;28;20319;-78
2021/03/28 04:33:05;;;;;;;5.57;3.10;;;;;;;;;;5104283;27;20239;-77
2021/03/28 04:35:38;;;;;;;5.97;2.90;;;;;;;;;;5112868;28;20240;-79
2021/03/28 04:38:12;;;;;;;7.23;3.03;;;;;;;;;;5114769;28;20238;-79
2021/03/28 04:40:55;;;;;;;6.57;3.50;;;;;;;;;;5116355;28;20228;-79
2021/03/28 04:43:28;;;;;;;12.33;3.50;;;;;;;;;;5115493;28;20723;-79
2021/03/28 04:46:13;;;;;;;7.50;3.97;;;;;;;;;;5119437;28;20311;-79
2021/03/28 04:48:54;;;;;;;4.10;3.20;;;;;;;;;;5089060;28;20297;-78
2021/03/28 04:51:30;;;;;;;7.37;3.17;;;;;;;;;;5100189;28;20301;-78
2021/03/28 04:54:15;;;;;;;6.63;3.53;;;;;;;;;;5100286;28;20288;-77
2021/03/28 04:57:07;;;;;;;6.07;2.93;;;;;;;;;;5107983;28;20288;-78
2021/03/28 04:59:53;;;;;;;9.70;2.93;;;;;;;;;;5120366;28;20283;-79
2021/03/28 05:02:24;;;;;;;4.87;3.10;;;;;;;;;;5120215;28;20763;-79
2021/03/28 05:05:10;;;;;;;4.37;3.00;;;;;;;;;;5120137;28;20259;-79
2021/03/28 05:07:55;;;;;;;4.53;2.53;;;;;;;;;;5120385;28;20256;-79
2021/03/28 05:10:38;;;;;;;4.57;2.80;;;;;;;;;;5119512;28;20244;-78
2021/03/28 05:13:35;;;;;;;12.13;2.77;;;;;;;;;;5120310;28;20236;-78
2021/03/28 05:16:21;;;;;;;5.17;2.90;;;;;;;;;;5057321;28;20313;-78
2021/03/28 05:19:00;;;;;;;6.37;3.43;;;;;;;;;;5113844;28;20275;-78
2021/03/28 05:21:38;;;;;;;6.23;3.07;;;;;;;;;;5120327;28;20236;-77
2021/03/28 05:24:23;;;;;;;8.60;3.60;;;;;;;;;;5120224;28;20288;-80
2021/03/28 05:26:56;;;;;;;5.83;3.17;;;;;;;;;;5109821;27;20224;-78
2021/03/28 05:29:40;;;;;;;5.40;3.40;;;;;;;;;;5119587;28;20268;-78
2021/03/28 05:32:19;;;;;;;5.10;2.90;;;;;;;;;;5099928;28;20210;-78
2021/03/28 05:35:05;;;;;;;6.27;3.47;;;;;;;;;;5104064;28;20292;-78
2021/03/28 05:37:55;;;;;;;8.60;2.93;;;;;;;;;;5099257;28;20229;-78
2021/03/28 05:40:33;;;;;;;6.63;3.47;;;;;;;;;;5106803;28;20722;-78
2021/03/28 05:43:13;;;;;;;6.93;3.70;;;;;;;;;;5119460;28;20302;-78
2021/03/28 05:45:50;;;;;;;5.50;2.70;;;;;;;;;;5119468;28;20296;-78
2021/03/28 05:48:35;;;;;;;4.47;2.60;;;;;;;;;;5099981;28;20208;-78
2021/03/28 05:51:10;;;;;;;6.67;2.83;;;;;;;;;;5078185;28;20247;-78
2021/03/28 05:54:04;;;;;;;7.57;3.17;;;;;;;;;;5099272;28;20219;-77
2021/03/28 05:56:54;;;;;;;5.93;3.10;;;;;;;;;;5074617;28;20232;-77
2021/03/28 05:59:40;;;;;;;6.33;3.27;;;;;;;;;;5088246;28;20636;-77
2021/03/28 06:02:26;;;;;;;3.70;2.63;;;;;;;;;;5098811;28;20308;-78
2021/03/28 06:05:12;;;;;;;6.13;2.70;;;;;;;;;;5098794;28;20252;-78
2021/03/28 06:08:12;;;;;;;6.70;3.20;;;;;;;;;;5098642;28;20213;-79
2021/03/28 06:11:01;;;;;;;5.40;3.10;;;;;;;;;;5056323;28;20307;-79
2021/03/28 06:13:34;;;;;;;5.43;3.00;;;;;;;;;;5090590;28;20280;-80
2021/03/28 06:16:13;;;;;;;5.27;2.87;;;;;;;;;;5112359;27;20307;-79
2021/03/28 06:19:07;;;;;;;8.37;3.03;;;;;;;;;;5134699;27;20279;-80
2021/03/28 06:21:54;;;;;;;6.97;3.43;;;;;;;;;;5121417;27;20225;-80
2021/03/28 06:24:39;;;;;;;5.97;2.73;;;;;;;;;;5120926;27;20308;-80
2021/03/28 06:27:21;;;;;;;7.13;2.60;;;;;;;;;;5105292;27;20252;-77
2021/03/28 06:30:04;;;;;;;6.23;3.00;;;;;;;;;;5123106;27;20321;-78
2021/03/28 06:32:42;;;;;;;7.10;3.03;;;;;;;;;;5137942;27;20200;-78
2021/03/28 06:35:28;;;;;;;8.37;3.10;;;;;;;;;;5127149;27;20303;-78
2021/03/28 06:38:28;;;;;;;4.77;2.50;;;;;;;;;;5124261;27;20211;-78
2021/03/28 06:41:12;;;;;;;5.17;2.97;;;;;;;;;;5118746;28;20243;-79
2021/03/28 06:43:58;;;;;;;5.57;2.40;;;;;;;;;;5118296;28;20247;-79
2021/03/28 06:46:46;;;;;;;6.23;2.80;;;;;;;;;;5113927;28;20307;-79
2021/03/28 06:49:29;;;;;;;7.50;2.97;;;;;;;;;;5098190;28;20288;-78
2021/03/28 06:52:05;;;;;;;7.57;3.70;;;;;;;;;;5098090;28;20236;-78
2021/03/28 06:54:47;;;;;;;9.50;3.20;;;;;;;;;;5098130;28;20232;-77
2021/03/28 06:57:32;;;;;;;5.67;3.50;;;;;;;;;;5098053;28;20201;-78
2021/03/28 07:00:17;;;;;;;6.50;3.63;;;;;;;;;;5106233;28;20292;-78
2021/03/28 07:02:59;;;;;;;5.17;3.47;;;;;;;;;;5118116;28;20232;-79
2021/03/28 07:05:32;;;;;;;6.27;3.47;;;;;;;;;;5084739;28;20254;-77
2021/03/28 07:08:12;;;;;;;6.37;3.63;;;;;;;;;;5118352;28;20263;-78
2021/03/28 07:10:56;;;;;;;11.13;3.50;;;;;;;;;;5118274;27;20656;-77
2021/03/28 07:13:35;;;;;;;11.10;4.80;;;;;;;;;;5117715;28;20243;-78
2021/03/28 07:16:15;;;;;;;8.30;3.93;;;;;;;;;;5118163;28;20219;-77
2021/03/28 07:19:00;;;;;;;8.27;3.90;;;;;;;;;;5118375;28;20208;-77
2021/03/28 07:21:36;;;;;;;6.07;4.20;;;;;;;;;;5118395;28;20287;-78
2021/03/28 07:24:25;;;;;;;10.93;4.03;;;;;;;;;;5117990;28;20606;-78
2021/03/28 07:26:57;;;;;;;7.80;4.73;;;;;;;;;;5117847;28;20357;-77
2021/03/28 07:29:43;;;;;;;7.37;3.87;;;;;;;;;;5117631;28;20712;-78
2021/03/28 07:32:25;;;;;;;8.03;3.67;;;;;;;;;;5098132;28;20200;-78
2021/03/28 07:35:11;;;;;;;6.47;3.97;;;;;;;;;;5104728;28;20300;-78
2021/03/28 07:38:04;;;;;;;8.77;4.23;;;;;;;;;;5112488;28;20283;-78
2021/03/28 07:40:48;;;;;;;8.97;4.07;;;;;;;;;;5111645;28;20208;-78
2021/03/28 07:43:30;;;;;;;14.27;4.47;;;;;;;;;;5113444;28;20275;-78
2021/03/28 07:46:16;;;;;;;6.53;4.47;;;;;;;;;;5102581;28;20300;-79
2021/03/28 07:48:58;;;;;;;5.83;4.30;;;;;;;;;;5112950;28;20284;-79
2021/03/28 07:51:46;;;;;;;8.73;4.50;;;;;;;;;;5112185;28;20281;-77
2021/03/28 07:54:41;;;;;;;7.27;3.57;;;;;;;;;;5100014;28;20305;-78
2021/03/28 07:57:36;;;;;;;4.67;3.83;;;;;;;;;;5111947;28;20228;-78
2021/03/28 08:00:31;;;;;;;6.27;4.20;;;;;;;;;;5111684;28;20288;-77
2021/03/28 08:03:26;;;;;;;8.57;4.43;;;;;;;;;;5115105;28;20236;-77
2021/03/28 08:06:09;;;;;;;7.53;3.90;;;;;;;;;;5103015;27;20228;-78
2021/03/28 08:08:42;;;;;;;5.10;3.63;;;;;;;;;;5101199;28;20277;-77
2021/03/28 08:11:24;;;;;;;11.57;3.90;;;;;;;;;;5108364;28;20225;-75
2021/03/28 08:14:10;;;;;;;7.13;4.47;;;;;;;;;;5118838;27;20239;-77
2021/03/28 08:16:54;;;;;;;6.90;4.40;;;;;;;;;;5121288;28;20233;-78
2021/03/28 08:19:42;;;;;;;9.13;4.37;;;;;;;;;;5121551;28;20239;-78
2021/03/28 08:22:18;;;;;;;6.37;3.97;;;;;;;;;;5121460;28;20288;-78
2021/03/28 08:25:00;;;;;;;5.07;3.60;;;;;;;;;;5121046;28;20307;-76
2021/03/28 08:27:51;;;;;;;7.57;4.30;;;;;;;;;;5121040;28;20307;-74
2021/03/28 08:30:30;;;;;;;8.07;3.83;;;;;;;;;;5063557;28;20638;-75
2021/03/28 08:33:20;;;;;;;6.53;4.10;;;;;;;;;;5121418;28;20295;-76
2021/03/28 08:35:52;;;;;;;7.47;4.30;;;;;;;;;;5111153;28;20245;-74
2021/03/28 08:38:37;;;;;;;8.77;4.13;;;;;;;;;;5100541;28;20209;-72
2021/03/28 08:41:21;;;;;;;8.93;4.60;;;;;;;;;;5100355;28;20292;-78
2021/03/28 08:44:09;;;;;;;7.37;3.50;;;;;;;;;;5087773;28;20208;-74
2021/03/28 08:46:58;;;;;;;5.63;3.57;;;;;;;;;;5110972;28;20241;-79
2021/03/28 08:49:28;;;;;;;8.80;3.50;;;;;;;;;;5100363;28;20222;-79
2021/03/28 08:52:13;;;;;;;5.93;3.23;;;;;;;;;;5100429;28;20231;-78
2021/03/28 08:54:46;;;;;;;14.43;3.40;;;;;;;;;;5100058;28;20290;-78
2021/03/28 08:57:19;;;;;;;6.00;3.40;;;;;;;;;;5100188;28;20709;-76
2021/03/28 08:59:54;;;;;;;7.33;3.03;;;;;;;;;;5107447;28;20247;-79
2021/03/28 09:02:41;;;;;;;9.53;3.37;;;;;;;;;;5120196;28;20208;-77
2021/03/28 09:05:16;;;;;;;6.97;3.10;;;;;;;;;;5120246;28;20893;-78
2021/03/28 09:07:49;;;;;;;6.53;3.47;;;;;;;;;;5120383;28;20307;-79
2021/03/28 09:10:26;;;;;;;6.77;3.57;;;;;;;;;;5120170;28;20288;-72
2021/03/28 09:13:06;;;;;;;7.73;3.20;;;;;;;;;;5114996;28;20241;-74
2021/03/28 09:15:37;;;;;;;10.37;3.20;;;;;;;;;;5110406;28;20220;-77
2021/03/28 09:18:14;;;;;;;4.37;3.03;;;;;;;;;;5113359;28;20193;-74
2021/03/28 09:20:48;;;;;;;7.83;3.00;;;;;;;;;;5110413;28;20213;-75
2021/03/28 09:23:17;;;;;;;10.77;4.20;;;;;;;;;;5114095;28;20236;-77
2021/03/28 09:25:50;;;;;;;11.53;3.57;;;;;;;;;;5100904;28;20267;-76
2021/03/28 09:28:25;;;;;;;4.10;3.10;;;;;;;;;;5119369;28;20307;-77
2021/03/28 09:30:55;;;;;;;9.10;3.37;;;;;;;;;;5110699;28;20260;-77
2021/03/28 09:33:37;;;;;;;10.03;3.37;;;;;;;;;;5099371;28;20356;-79
2021/03/28 09:36:14;;;;;;;8.03;4.27;;;;;;;;;;5104343;28;20253;-78
2021/03/28 09:38:57;;;;;;;8.07;3.40;;;;;;;;;;5099176;28;20227;-79
2021/03/28 09:41:35;;;;;;;5.67;3.33;;;;;;;;;;5099047;28;20304;-79
2021/03/28 09:44:06;;;;;;;8.57;3.00;;;;;;;;;;5098963;28;20205;-79
2021/03/28 09:46:39;;;;;;;7.67;2.80;;;;;;;;;;5106283;28;20633;-79
2021/03/28 09:49:21;;;;;;;8.90;3.63;;;;;;;;;;5099081;28;20693;-79
2021/03/28 09:52:03;;;;;;;8.03;3.30;;;;;;;;;;5107000;28;20287;-79
2021/03/28 09:54:44;;;;;;;8.30;3.67;;;;;;;;;;5117045;28;20279;-79
2021/03/28 09:57:29;;;;;;;5.73;3.57;;;;;;;;;;5119046;28;20220;-79
2021/03/28 10:00:11;;;;;;;6.87;3.10;;;;;;;;;;5119224;28;20714;-79
2021/03/28 10:02:43;;;;;;;4.40;2.87;;;;;;;;;;5119433;28;20224;-78
2021/03/28 10:05:12;;;;;;;5.60;3.13;;;;;;;;;;5119542;28;20833;-76
2021/03/28 10:07:46;;;;;;;7.80;3.00;;;;;;;;;;5119293;28;20224;-76
2021/03/28 10:10:27;;;;;;;4.43;2.80;;;;;;;;;;5119885;28;20779;-78
2021/03/28 10:12:59;;;;;;;5.37;2.80;;;;;;;;;;5116825;28;20687;-78
2021/03/28 10:15:27;;;;;;;4.97;2.30;;;;;;;;;;5118865;28;20256;-79
2021/03/28 10:18:04;;;;;;;5.40;2.27;;;;;;;;;;5119379;28;20248;-79
2021/03/28 10:20:38;;;;;;;5.80;2.33;;;;;;;;;;5119410;28;20215;-79
2021/03/28 10:23:12;;;;;;;4.27;2.50;;;;;;;;;;5119981;28;20243;-79
2021/03/28 10:25:45;;;;;;;5.47;1.80;;;;;;;;;;5119839;27;20234;-76
2021/03/28 10:28:31;;;;;;;6.67;2.10;;;;;;;;;;5119082;28;20242;-79
2021/03/28 10:31:06;;;;;;;9.50;2.90;;;;;;;;;;5108574;28;20265;-78
2021/03/28 10:33:38;;;;;;;4.40;2.60;;;;;;;;;;5098753;28;20211;-79
2021/03/28 10:36:20;;;;;;;7.47;2.40;;;;;;;;;;5103514;28;20225;-76
2021/03/28 10:38:56;;;;;;;4.47;2.03;;;;;;;;;;5106217;28;20204;-77
2021/03/28 10:41:29;;;;;;;6.23;3.00;;;;;;;;;;5118551;28;20211;-78
2021/03/28 10:44:01;;;;;;;2.73;1.80;;;;;;;;;;5118483;28;20287;-77
2021/03/28 10:46:47;;;;;;;4.83;1.70;;;;;;;;;;5114988;28;20205;-78
2021/03/28 10:49:31;;;;;;;2.63;1.77;;;;;;;;;;5098367;28;20205;-79
2021/03/28 10:52:20;;;;;;;4.97;1.77;;;;;;;;;;5107323;28;20208;-79
2021/03/28 10:55:20;;;;;;;5.73;2.10;;;;;;;;;;5119035;28;20273;-78
2021/03/28 10:58:05;;;;;;;3.63;1.73;;;;;;;;;;5118708;27;20288;-76
2021/03/28 11:00:48;;;;;;;6.63;1.60;;;;;;;;;;5118568;28;20607;-78
2021/03/28 11:03:36;;;;;;;3.77;1.50;;;;;;;;;;5119204;28;20313;-76
2021/03/28 11:06:16;;;;;;;7.60;1.77;;;;;;;;;;5118770;28;20332;-77
2021/03/28 11:08:59;;;;;;;2.90;1.87;;;;;;;;;;5117924;28;20254;-78
2021/03/28 11:11:43;;;;;;;2.97;1.30;;;;;;;;;;5118339;28;20731;-78
2021/03/28 11:14:23;;;;;;;3.97;2.07;;;;;;;;;;5118074;27;20228;-77
2021/03/28 11:17:05;;;;;;;2.97;1.40;;;;;;;;;;5118598;28;20272;-80
2021/03/28 11:19:51;;;;;;;4.40;1.83;;;;;;;;;;5118749;28;20264;-77
2021/03/28 11:22:22;;;;;;;3.07;1.37;;;;;;;;;;5118246;28;20200;-76
2021/03/28 11:25:00;;;;;;;4.50;1.70;;;;;;;;;;5118406;28;20248;-79
2021/03/28 11:27:51;;;;;;;4.53;1.77;;;;;;;;;;5118448;28;20259;-78
2021/03/28 11:30:31;;;;;;;4.30;1.67;;;;;;;;;;5112569;28;20751;-78
2021/03/28 11:33:02;;;;;;;2.40;1.60;;;;;;;;;;5098072;28;20205;-79
2021/03/28 11:35:31;;;;;;;2.13;1.37;;;;;;;;;;5101888;28;20308;-78
2021/03/28 11:38:17;;;;;;;5.97;2.10;;;;;;;;;;5097915;28;20205;-79
2021/03/28 11:40:47;;;;;;;7.97;1.50;;;;;;;;;;5097769;28;20218;-79
2021/03/28 11:43:21;;;;;;;5.63;2.00;;;;;;;;;;5097903;28;20214;-79
2021/03/28 11:45:49;;;;;;;6.17;2.97;;;;;;;;;;5103222;28;20256;-79
2021/03/28 11:48:33;;;;;;;4.43;1.60;;;;;;;;;;5097791;28;20700;-76
2021/03/28 11:51:14;;;;;;;5.03;2.10;;;;;;;;;;5097767;28;20314;-76
2021/03/28 11:53:42;;;;;;;8.17;2.20;;;;;;;;;;5097526;28;20308;-78
2021/03/28 11:56:24;;;;;;;5.43;1.83;;;;;;;;;;5097249;28;20287;-78
2021/03/28 11:59:00;;;;;;;3.43;1.80;;;;;;;;;;5097135;28;20620;-78
2021/03/28 12:01:51;;;;;;;4.30;1.80;;;;;;;;;;5105321;28;20631;-78
2021/03/28 12:04:26;;;;;;;4.03;2.03;;;;;;;;;;5102263;28;20763;-77
2021/03/28 12:06:56;;;;;;;2.47;2.10;;;;;;;;;;5117719;28;20261;-79
2021/03/28 12:09:31;;;;;;;5.73;1.83;;;;;;;;;;5117709;28;20237;-78
2021/03/28 12:12:13;;;;;;;5.83;1.73;;;;;;;;;;5117952;28;20242;-77
2021/03/28 12:14:40;;;;;;;4.07;1.50;;;;;;;;;;5117512;28;20260;-75
2021/03/28 12:17:34;;;;;;;5.97;1.80;;;;;;;;;;5117396;28;20274;-77
2021/03/28 12:20:08;;;;;;;7.17;1.93;;;;;;;;;;5118130;28;20209;-79
2021/03/28 12:22:45;;;;;;;6.37;2.07;;;;;;;;;;5121827;28;20279;-76
2021/03/28 12:25:20;;;;;;;3.80;1.70;;;;;;;;;;5121391;28;20225;-76
2021/03/28 12:28:02;;;;;;;4.20;1.43;;;;;;;;;;5121398;28;20242;-77
2021/03/28 12:30:31;;;;;;;4.43;1.80;;;;;;;;;;5114394;27;20237;-78
2021/03/28 12:33:01;;;;;;;2.60;1.67;;;;;;;;;;5100962;28;20269;-77
2021/03/28 12:35:31;;;;;;;2.87;1.97;;;;;;;;;;5105478;28;20257;-77
2021/03/28 12:38:15;;;;;;;6.37;2.07;;;;;;;;;;5100680;28;20240;-78
2021/03/28 12:40:43;;;;;;;3.97;1.90;;;;;;;;;;5100875;28;20212;-78
2021/03/28 12:43:21;;;;;;;2.93;1.40;;;;;;;;;;5100320;28;20241;-76
2021/03/28 12:45:48;;;;;;;2.53;1.40;;;;;;;;;;5105925;28;20263;-77
2021/03/28 12:48:32;;;;;;;4.80;1.60;;;;;;;;;;5101269;28;20252;-79
2021/03/28 12:51:00;;;;;;;3.77;1.63;;;;;;;;;;5100569;28;20237;-79
2021/03/28 12:53:32;;;;;;;4.33;2.00;;;;;;;;;;5100396;28;20237;-79
2021/03/28 12:56:00;;;;;;;3.97;1.83;;;;;;;;;;5100079;28;20274;-79
2021/03/28 12:58:36;;;;;;;6.93;1.80;;;;;;;;;;5099827;28;20617;-77
2021/03/28 13:01:04;;;;;;;2.97;1.73;;;;;;;;;;5107690;28;20236;-76
2021/03/28 13:03:37;;;;;;;3.17;1.70;;;;;;;;;;5112678;28;20193;-76
2021/03/28 13:06:16;;;;;;;3.13;1.70;;;;;;;;;;5111568;28;20227;-77
2021/03/28 13:08:46;;;;;;;4.10;1.57;;;;;;;;;;5109919;28;20216;-76
2021/03/28 13:11:14;;;;;;;3.03;1.67;;;;;;;;;;5112728;28;20197;-78
2021/03/28 13:13:45;;;;;;;5.43;1.90;;;;;;;;;;5109667;28;20211;-80
2021/03/28 13:16:21;;;;;;;4.90;1.97;;;;;;;;;;5111762;28;20250;-77
2021/03/28 13:18:55;;;;;;;4.70;1.63;;;;;;;;;;5110514;28;20196;-77
2021/03/28 13:21:24;;;;;;;5.63;1.70;;;;;;;;;;5110765;28;20257;-78
2021/03/28 13:23:53;;;;;;;5.43;1.40;;;;;;;;;;5119937;28;20280;-78
2021/03/28 13:26:22;;;;;;;4.67;2.23;;;;;;;;;;5107555;28;20317;-78
2021/03/28 13:28:56;;;;;;;3.77;1.77;;;;;;;;;;5118230;28;20308;-77
2021/03/28 13:31:26;;;;;;;3.90;1.50;;;;;;;;;;5118569;28;20196;-77
2021/03/28 13:33:54;;;;;;;3.47;1.43;;;;;;;;;;5099387;28;20292;-77
2021/03/28 13:36:25;;;;;;;4.73;1.70;;;;;;;;;;5103889;28;20239;-78
2021/03/28 13:39:11;;;;;;;4.37;1.67;;;;;;;;;;5101484;28;20233;-79
2021/03/28 13:41:39;;;;;;;5.80;1.70;;;;;;;;;;5111752;28;20280;-78
2021/03/28 13:44:10;;;;;;;4.93;1.50;;;;;;;;;;5110069;28;20257;-77
2021/03/28 13:46:44;;;;;;;3.30;1.63;;;;;;;;;;5112742;28;20557;-79
2021/03/28 13:49:22;;;;;;;3.67;1.47;;;;;;;;;;5111469;28;20255;-77
2021/03/28 13:52:05;;;;;;;3.67;1.80;;;;;;;;;;5119036;28;20694;-78
2021/03/28 13:54:32;;;;;;;2.33;1.43;;;;;;;;;;5117712;28;20220;-77
2021/03/28 13:56:59;;;;;;;6.23;2.83;;;;;;;;;;5118621;28;20236;-77
2021/03/28 13:59:27;;;;;;;3.67;2.00;;;;;;;;;;5118583;28;20272;-77
2021/03/28 14:01:59;;;;;;;3.80;1.50;;;;;;;;;;5119120;28;20211;-79
2021/03/28 14:04:32;;;;;;;3.90;1.40;;;;;;;;;;5118739;28;20624;-79
2021/03/28 14:07:09;;;;;;;3.57;1.30;;;;;;;;;;5118769;28;20219;-78
2021/03/28 14:09:39;;;;;;;3.20;1.50;;;;;;;;;;5119416;28;20208;-79
2021/03/28 14:12:08;;;;;;;3.90;1.83;;;;;;;;;;5119165;28;20299;-78
2021/03/28 14:14:38;;;;;;;5.27;1.60;;;;;;;;;;5118928;28;20260;-78
2021/03/28 14:17:14;;;;;;;2.30;1.30;;;;;;;;;;5118881;28;20636;-78
2021/03/28 14:19:41;;;;;;;3.53;1.20;;;;;;;;;;5119192;28;20240;-78
2021/03/28 14:22:14;;;;;;;4.87;1.63;;;;;;;;;;5119176;28;20239;-78
2021/03/28 14:24:42;;;;;;;1.80;1.57;;;;;;;;;;5118839;28;20312;-77
2021/03/28 14:27:16;;;;;;;2.20;1.10;;;;;;;;;;5118656;28;20232;-79
2021/03/28 14:29:45;;;;;;;2.90;1.33;;;;;;;;;;5118334;28;20236;-77
2021/03/28 14:32:20;;;;;;;5.47;1.43;;;;;;;;;;5098582;28;20209;-79
2021/03/28 14:35:02;;;;;;;3.33;1.33;;;;;;;;;;5103484;28;20299;-79
2021/03/28 14:37:59;;;;;;;4.30;1.27;;;;;;;;;;5098559;28;20258;-78
2021/03/28 14:40:46;;;;;;;2.67;1.33;;;;;;;;;;5105604;28;20251;-79
2021/03/28 14:43:35;;;;;;;3.10;1.33;;;;;;;;;;5092645;28;20280;-79
2021/03/28 14:46:09;;;;;;;7.43;1.53;;;;;;;;;;5118672;28;20229;-78
2021/03/28 14:48:42;;;;;;;4.20;1.43;;;;;;;;;;5098035;28;20588;-77
2021/03/28 14:51:13;;;;;;;5.20;1.67;;;;;;;;;;5098258;28;20232;-79
2021/03/28 14:53:44;;;;;;;2.30;1.23;;;;;;;;;;5098136;28;20209;-76
2021/03/28 14:56:21;;;;;;;2.80;1.07;;;;;;;;;;5097786;28;20594;-79
2021/03/28 14:59:10;;;;;;;3.13;1.40;;;;;;;;;;5097891;28;20209;-81
2021/03/28 15:01:44;;;;;;;2.67;1.50;;;;;;;;;;5088244;28;20244;-81
2021/03/28 15:04:15;;;;;;;2.13;1.30;;;;;;;;;;5115854;28;20204;-74
2021/03/28 15:06:59;;;;;;;3.10;1.40;;;;;;;;;;5108844;28;20232;-79
2021/03/28 15:09:28;;;;;;;4.90;1.43;;;;;;;;;;5107847;28;20308;-76
2021/03/28 15:11:57;;;;;;;3.40;1.60;;;;;;;;;;5109122;28;20591;-77
2021/03/28 15:14:27;;;;;;;2.47;1.23;;;;;;;;;;5108238;28;20217;-78
2021/03/28 15:16:57;;;;;;;8.07;1.50;;;;;;;;;;5112368;28;20292;-76
2021/03/28 15:19:26;;;;;;;4.07;1.60;;;;;;;;;;5118364;28;20296;-75
2021/03/28 15:22:01;;;;;;;4.00;1.50;;;;;;;;;;5118265;28;20236;-74
2021/03/28 15:24:31;;;;;;;1.83;1.20;;;;;;;;;;5117877;28;20689;-73
2021/03/28 15:27:06;;;;;;;4.27;1.40;;;;;;;;;;5117991;28;20353;-73
2021/03/28 15:29:35;;;;;;;2.47;1.67;;;;;;;;;;5117565;28;20695;-75
2021/03/28 15:32:19;;;;;;;1.97;1.67;;;;;;;;;;5099082;28;20212;-77
2021/03/28 15:34:53;;;;;;;4.30;1.43;;;;;;;;;;5104134;28;20307;-72
2021/03/28 15:37:23;;;;;;;2.60;1.47;;;;;;;;;;5110760;28;20603;-71
2021/03/28 15:39:59;;;;;;;2.53;1.50;;;;;;;;;;5112046;28;20239;-72
2021/03/28 15:42:31;;;;;;;1.47;1.37;;;;;;;;;;5113845;28;20715;-74
2021/03/28 15:45:15;;;;;;;3.87;1.50;;;;;;;;;;5112859;28;20227;-72